El Paso, TX

12:49 AM MDT on September 21, 2014 (GMT -0600)
El Paso International | Change Station
CLOSE
Current Station
Airport
Location: El Paso,
Elevation: 3917 ft
Nearby Weather Stations

Elev 3917 ft 31.81 °N, 106.38 °W | Updated 58 minutes ago

Clear
Clear
76 °F
Feels Like 76 °F
N
4
Wind Variable Wind from North

Today
High -- | Low -- °F
--% Chance of Precip.
Yesterday
High -- | Low -- °F
Precip. -- in
6:54 AM 7:04 PM
Waning Crescent, 8% visible
Pressure 29.88 in
Visibility 10.0 miles
Clouds Few 10000 ft
Few 20000 ft
Dew Point 64 °F
Humidity 67%
Rainfall 0.00 in
Snow Depth Not available.
UV 0 out of 12
Pollen 9.20 out of 12
Air Quality Not available.
Flu Activity Not available.
METAR KELP 210551Z 01003KT 10SM FEW100 FEW200 24/18 A3009 RMK AO2 SLP117 T02440178 10306 20239 51016

More Conditions Fewer Conditions

Pressure 29.88 in
Visibility 10.0 miles
Clouds Few 10000 ft
Few 20000 ft
Dew Point 64 °F
Humidity 67%
Rainfall 0.00 in
Snow Depth Not available.
UV 0 out of 12
Pollen 9.20 out of 12
Air Quality Not available.
Flu Activity Not available.
METAR KELP 210551Z 01003KT 10SM FEW100 FEW200 24/18 A3009 RMK AO2 SLP117 T02440178 10306 20239 51016

More Conditions Fewer Conditions

10-Day Weather Forecast

Almanac

Astronomy

Sep. 21, 2014 Rise Set
Actual Time 6:54 AM MDT 7:04 PM MDT
Civil Twilight 6:29 AM MDT 7:28 PM MDT
Nautical Twilight 6:01 AM MDT 7:57 PM MDT
Astronomical Twilight 5:32 AM MDT 8:25 PM MDT
Moon 4:37 AM MDT 5:36 PM MDT
Length of Visible Light 12h 59m
Length of Day
12h 10m
Tomorrow will be 1m 57s shorter.
Waning Crescent, 8% of the Moon is Illuminated
Today
Waning Crescent
Sep 24
New
Oct 1
First Quarter
Oct 8
Full
Oct 15
Last Quarter

Today's Extremes

State Highs State Lows

Community

WunderPhotos

Upload Photos

1,755,098 photos uploaded!

Nearby

Snow Depth

Station Depth Elevation
No new snow has been reported.

Earthquake Activity

City Distance Mag. Time & Date
No recent earthquake activity has been reported nearby.
Minimum magnitude displayed is 2.5.

Coastal Water Temperatures

Place Temperature
No Stations Reporting

Nearby Weather Stations